sensor_id;sensor_type;location;lat;lon;timestamp;P1;durP1;ratioP1;P2;durP2;ratioP2
13797;SDS011;6970;51.340;3.240;2023-09-19T00:01:00;11.80;;;2.37;;
13797;SDS011;6970;51.340;3.240;2023-09-19T00:03:28;12.13;;;2.20;;
13797;SDS011;6970;51.340;3.240;2023-09-19T00:05:55;8.63;;;1.87;;
13797;SDS011;6970;51.340;3.240;2023-09-19T00:08:25;8.37;;;2.07;;
13797;SDS011;6970;51.340;3.240;2023-09-19T00:10:52;11.70;;;1.97;;
13797;SDS011;6970;51.340;3.240;2023-09-19T00:13:24;9.87;;;2.20;;
13797;SDS011;6970;51.340;3.240;2023-09-19T00:15:52;10.10;;;2.60;;
13797;SDS011;6970;51.340;3.240;2023-09-19T00:18:25;9.77;;;2.23;;
13797;SDS011;6970;51.340;3.240;2023-09-19T00:23:33;6.97;;;1.87;;
13797;SDS011;6970;51.340;3.240;2023-09-19T00:28:32;6.87;;;1.83;;
13797;SDS011;6970;51.340;3.240;2023-09-19T00:31:01;9.17;;;1.63;;
13797;SDS011;6970;51.340;3.240;2023-09-19T00:33:28;6.20;;;1.80;;
13797;SDS011;6970;51.340;3.240;2023-09-19T00:35:56;10.90;;;2.00;;
13797;SDS011;6970;51.340;3.240;2023-09-19T00:38:25;12.30;;;1.90;;
13797;SDS011;6970;51.340;3.240;2023-09-19T00:40:54;10.57;;;2.30;;
13797;SDS011;6970;51.340;3.240;2023-09-19T00:43:27;8.07;;;2.30;;
13797;SDS011;6970;51.340;3.240;2023-09-19T00:45:57;6.43;;;1.73;;
13797;SDS011;6970;51.340;3.240;2023-09-19T00:48:29;6.07;;;1.43;;
13797;SDS011;6970;51.340;3.240;2023-09-19T00:51:02;7.57;;;1.60;;
13797;SDS011;6970;51.340;3.240;2023-09-19T00:56:03;7.83;;;2.23;;
13797;SDS011;6970;51.340;3.240;2023-09-19T00:58:34;10.60;;;2.03;;
13797;SDS011;6970;51.340;3.240;2023-09-19T01:01:04;6.07;;;1.90;;
13797;SDS011;6970;51.340;3.240;2023-09-19T01:06:07;5.13;;;1.67;;
13797;SDS011;6970;51.340;3.240;2023-09-19T01:08:35;7.33;;;2.00;;
13797;SDS011;6970;51.340;3.240;2023-09-19T01:13:56;6.93;;;2.50;;
13797;SDS011;6970;51.340;3.240;2023-09-19T01:22:36;11.57;;;1.97;;
13797;SDS011;6970;51.340;3.240;2023-09-19T01:34:03;8.73;;;1.90;;
13797;SDS011;6970;51.340;3.240;2023-09-19T01:36:37;4.03;;;1.50;;
13797;SDS011;6970;51.340;3.240;2023-09-19T01:39:09;7.13;;;2.00;;
13797;SDS011;6970;51.340;3.240;2023-09-19T01:41:51;12.00;;;3.20;;
13797;SDS011;6970;51.340;3.240;2023-09-19T01:47:07;5.73;;;2.03;;
13797;SDS011;6970;51.340;3.240;2023-09-19T01:53:06;6.73;;;1.90;;
13797;SDS011;6970;51.340;3.240;2023-09-19T01:55:41;7.40;;;2.27;;
13797;SDS011;6970;51.340;3.240;2023-09-19T01:58:27;10.50;;;2.00;;
13797;SDS011;6970;51.340;3.240;2023-09-19T02:00:56;10.00;;;2.00;;
13797;SDS011;6970;51.340;3.240;2023-09-19T02:03:27;8.40;;;2.13;;
13797;SDS011;6970;51.340;3.240;2023-09-19T02:05:55;8.37;;;2.50;;
13797;SDS011;6970;51.340;3.240;2023-09-19T02:08:22;6.10;;;2.10;;
13797;SDS011;6970;51.340;3.240;2023-09-19T02:10:52;8.57;;;2.00;;
13797;SDS011;6970;51.340;3.240;2023-09-19T02:13:20;5.77;;;1.90;;
13797;SDS011;6970;51.340;3.240;2023-09-19T02:15:50;9.43;;;1.83;;
13797;SDS011;6970;51.340;3.240;2023-09-19T02:18:17;8.37;;;2.23;;
13797;SDS011;6970;51.340;3.240;2023-09-19T02:20:44;7.63;;;2.77;;
13797;SDS011;6970;51.340;3.240;2023-09-19T02:23:12;7.67;;;1.90;;
13797;SDS011;6970;51.340;3.240;2023-09-19T02:25:40;4.53;;;2.17;;
13797;SDS011;6970;51.340;3.240;2023-09-19T02:28:07;7.33;;;2.20;;
13797;SDS011;6970;51.340;3.240;2023-09-19T02:30:35;8.30;;;2.33;;
13797;SDS011;6970;51.340;3.240;2023-09-19T02:33:03;7.63;;;2.13;;
13797;SDS011;6970;51.340;3.240;2023-09-19T02:35:32;12.33;;;2.10;;
13797;SDS011;6970;51.340;3.240;2023-09-19T02:38:02;6.07;;;1.80;;
13797;SDS011;6970;51.340;3.240;2023-09-19T02:40:33;7.97;;;1.57;;
13797;SDS011;6970;51.340;3.240;2023-09-19T02:43:02;6.37;;;1.97;;
13797;SDS011;6970;51.340;3.240;2023-09-19T02:45:31;4.10;;;1.70;;
13797;SDS011;6970;51.340;3.240;2023-09-19T02:47:58;7.50;;;1.87;;
13797;SDS011;6970;51.340;3.240;2023-09-19T02:50:28;8.50;;;2.07;;
13797;SDS011;6970;51.340;3.240;2023-09-19T02:52:55;4.13;;;1.87;;
13797;SDS011;6970;51.340;3.240;2023-09-19T02:55:23;6.90;;;2.00;;
13797;SDS011;6970;51.340;3.240;2023-09-19T02:57:53;7.20;;;1.77;;
13797;SDS011;6970;51.340;3.240;2023-09-19T03:00:25;3.70;;;1.70;;
13797;SDS011;6970;51.340;3.240;2023-09-19T03:02:58;6.40;;;2.10;;
13797;SDS011;6970;51.340;3.240;2023-09-19T03:07:59;4.43;;;1.80;;
13797;SDS011;6970;51.340;3.240;2023-09-19T03:10:27;8.67;;;2.37;;
13797;SDS011;6970;51.340;3.240;2023-09-19T03:12:57;6.47;;;2.10;;
13797;SDS011;6970;51.340;3.240;2023-09-19T03:15:34;7.50;;;2.13;;
13797;SDS011;6970;51.340;3.240;2023-09-19T03:18:04;4.80;;;1.67;;
13797;SDS011;6970;51.340;3.240;2023-09-19T03:20:33;7.93;;;2.20;;
13797;SDS011;6970;51.340;3.240;2023-09-19T03:23:03;7.40;;;2.30;;
13797;SDS011;6970;51.340;3.240;2023-09-19T03:25:34;6.97;;;2.00;;
13797;SDS011;6970;51.340;3.240;2023-09-19T03:28:03;7.33;;;2.00;;
13797;SDS011;6970;51.340;3.240;2023-09-19T03:30:33;9.13;;;2.93;;
13797;SDS011;6970;51.340;3.240;2023-09-19T03:33:02;8.67;;;2.20;;
13797;SDS011;6970;51.340;3.240;2023-09-19T03:35:32;6.17;;;1.57;;
13797;SDS011;6970;51.340;3.240;2023-09-19T03:37:59;10.80;;;2.33;;
13797;SDS011;6970;51.340;3.240;2023-09-19T03:40:29;5.27;;;1.80;;
13797;SDS011;6970;51.340;3.240;2023-09-19T03:45:27;12.70;;;2.40;;
13797;SDS011;6970;51.340;3.240;2023-09-19T03:47:55;7.07;;;2.10;;
13797;SDS011;6970;51.340;3.240;2023-09-19T03:50:25;8.30;;;2.27;;
13797;SDS011;6970;51.340;3.240;2023-09-19T03:52:59;8.63;;;2.13;;
13797;SDS011;6970;51.340;3.240;2023-09-19T03:55:26;6.13;;;1.97;;
13797;SDS011;6970;51.340;3.240;2023-09-19T03:57:53;8.30;;;2.33;;
13797;SDS011;6970;51.340;3.240;2023-09-19T04:00:22;8.50;;;2.27;;
13797;SDS011;6970;51.340;3.240;2023-09-19T04:05:23;8.90;;;2.20;;
13797;SDS011;6970;51.340;3.240;2023-09-19T04:13:01;9.50;;;2.00;;
13797;SDS011;6970;51.340;3.240;2023-09-19T04:15:28;7.03;;;2.10;;
13797;SDS011;6970;51.340;3.240;2023-09-19T04:17:59;7.10;;;2.00;;
13797;SDS011;6970;51.340;3.240;2023-09-19T04:20:26;5.83;;;2.10;;
13797;SDS011;6970;51.340;3.240;2023-09-19T04:22:56;6.23;;;2.17;;
13797;SDS011;6970;51.340;3.240;2023-09-19T04:25:25;7.93;;;2.10;;
13797;SDS011;6970;51.340;3.240;2023-09-19T04:27:57;11.90;;;2.37;;
13797;SDS011;6970;51.340;3.240;2023-09-19T04:30:25;4.97;;;2.13;;
13797;SDS011;6970;51.340;3.240;2023-09-19T04:32:52;4.97;;;1.77;;
13797;SDS011;6970;51.340;3.240;2023-09-19T04:35:21;8.97;;;2.63;;
13797;SDS011;6970;51.340;3.240;2023-09-19T04:40:22;11.40;;;2.70;;
13797;SDS011;6970;51.340;3.240;2023-09-19T04:42:57;5.47;;;1.93;;
13797;SDS011;6970;51.340;3.240;2023-09-19T04:47:57;11.83;;;2.70;;
13797;SDS011;6970;51.340;3.240;2023-09-19T04:50:24;9.30;;;2.67;;
13797;SDS011;6970;51.340;3.240;2023-09-19T04:55:25;9.73;;;2.20;;
13797;SDS011;6970;51.340;3.240;2023-09-19T04:57:52;13.77;;;2.73;;
13797;SDS011;6970;51.340;3.240;2023-09-19T05:00:23;11.30;;;2.13;;
13797;SDS011;6970;51.340;3.240;2023-09-19T05:02:52;11.67;;;2.60;;
13797;SDS011;6970;51.340;3.240;2023-09-19T05:05:23;8.67;;;2.30;;
13797;SDS011;6970;51.340;3.240;2023-09-19T05:07:55;14.20;;;2.87;;
13797;SDS011;6970;51.340;3.240;2023-09-19T05:10:23;12.30;;;3.03;;
13797;SDS011;6970;51.340;3.240;2023-09-19T05:12:54;8.10;;;2.50;;
13797;SDS011;6970;51.340;3.240;2023-09-19T05:15:21;9.50;;;2.70;;
13797;SDS011;6970;51.340;3.240;2023-09-19T05:17:49;11.97;;;2.50;;
13797;SDS011;6970;51.340;3.240;2023-09-19T05:20:23;9.30;;;2.53;;
13797;SDS011;6970;51.340;3.240;2023-09-19T05:23:00;9.90;;;2.17;;
13797;SDS011;6970;51.340;3.240;2023-09-19T05:25:32;7.10;;;2.33;;
13797;SDS011;6970;51.340;3.240;2023-09-19T05:28:04;11.53;;;2.53;;
13797;SDS011;6970;51.340;3.240;2023-09-19T05:30:36;8.53;;;2.77;;
13797;SDS011;6970;51.340;3.240;2023-09-19T05:33:12;16.40;;;2.80;;
13797;SDS011;6970;51.340;3.240;2023-09-19T05:35:41;12.10;;;3.00;;
13797;SDS011;6970;51.340;3.240;2023-09-19T05:38:08;10.13;;;2.70;;
13797;SDS011;6970;51.340;3.240;2023-09-19T05:40:36;10.07;;;2.90;;
13797;SDS011;6970;51.340;3.240;2023-09-19T05:43:05;12.77;;;2.83;;
13797;SDS011;6970;51.340;3.240;2023-09-19T05:45:32;8.73;;;2.73;;
13797;SDS011;6970;51.340;3.240;2023-09-19T05:48:11;13.23;;;2.63;;
13797;SDS011;6970;51.340;3.240;2023-09-19T05:50:43;8.27;;;2.30;;
13797;SDS011;6970;51.340;3.240;2023-09-19T05:53:18;13.40;;;3.17;;
13797;SDS011;6970;51.340;3.240;2023-09-19T06:00:47;6.57;;;2.90;;
13797;SDS011;6970;51.340;3.240;2023-09-19T06:03:17;9.53;;;2.27;;
13797;SDS011;6970;51.340;3.240;2023-09-19T06:08:16;12.20;;;2.47;;
13797;SDS011;6970;51.340;3.240;2023-09-19T06:10:46;7.90;;;2.83;;
13797;SDS011;6970;51.340;3.240;2023-09-19T06:13:15;11.67;;;3.70;;
13797;SDS011;6970;51.340;3.240;2023-09-19T06:15:43;10.60;;;2.90;;
13797;SDS011;6970;51.340;3.240;2023-09-19T06:20:47;12.03;;;2.80;;
13797;SDS011;6970;51.340;3.240;2023-09-19T06:25:50;9.10;;;2.90;;
13797;SDS011;6970;51.340;3.240;2023-09-19T06:33:24;12.23;;;3.20;;
13797;SDS011;6970;51.340;3.240;2023-09-19T06:35:53;16.83;;;3.20;;
13797;SDS011;6970;51.340;3.240;2023-09-19T06:38:25;14.13;;;2.60;;
13797;SDS011;6970;51.340;3.240;2023-09-19T06:40:53;10.10;;;2.90;;
13797;SDS011;6970;51.340;3.240;2023-09-19T06:43:24;9.83;;;3.13;;
13797;SDS011;6970;51.340;3.240;2023-09-19T06:45:51;12.60;;;2.53;;
13797;SDS011;6970;51.340;3.240;2023-09-19T06:48:22;10.37;;;2.40;;
13797;SDS011;6970;51.340;3.240;2023-09-19T06:50:54;14.07;;;3.30;;
13797;SDS011;6970;51.340;3.240;2023-09-19T06:53:23;11.23;;;2.77;;
13797;SDS011;6970;51.340;3.240;2023-09-19T06:55:53;11.40;;;2.63;;
13797;SDS011;6970;51.340;3.240;2023-09-19T06:58:23;10.67;;;2.70;;
13797;SDS011;6970;51.340;3.240;2023-09-19T07:03:22;13.13;;;2.70;;
13797;SDS011;6970;51.340;3.240;2023-09-19T07:05:52;9.37;;;2.87;;
13797;SDS011;6970;51.340;3.240;2023-09-19T07:08:22;9.67;;;3.37;;
13797;SDS011;6970;51.340;3.240;2023-09-19T07:10:49;11.83;;;2.63;;
13797;SDS011;6970;51.340;3.240;2023-09-19T07:13:19;9.80;;;3.03;;
13797;SDS011;6970;51.340;3.240;2023-09-19T07:15:48;7.93;;;2.30;;
13797;SDS011;6970;51.340;3.240;2023-09-19T07:18:18;9.80;;;2.97;;
13797;SDS011;6970;51.340;3.240;2023-09-19T07:20:48;9.10;;;2.63;;
13797;SDS011;6970;51.340;3.240;2023-09-19T07:23:19;6.57;;;2.60;;
13797;SDS011;6970;51.340;3.240;2023-09-19T07:25:50;12.00;;;2.97;;
13797;SDS011;6970;51.340;3.240;2023-09-19T07:28:20;10.93;;;2.80;;
13797;SDS011;6970;51.340;3.240;2023-09-19T07:30:49;11.87;;;2.80;;
13797;SDS011;6970;51.340;3.240;2023-09-19T07:33:17;11.30;;;2.67;;
13797;SDS011;6970;51.340;3.240;2023-09-19T07:38:18;7.80;;;2.30;;
13797;SDS011;6970;51.340;3.240;2023-09-19T07:40:47;14.80;;;2.83;;
13797;SDS011;6970;51.340;3.240;2023-09-19T07:43:15;10.57;;;2.30;;
13797;SDS011;6970;51.340;3.240;2023-09-19T07:45:42;13.40;;;2.60;;
13797;SDS011;6970;51.340;3.240;2023-09-19T07:48:12;10.83;;;2.17;;
13797;SDS011;6970;51.340;3.240;2023-09-19T07:50:44;12.13;;;2.70;;
13797;SDS011;6970;51.340;3.240;2023-09-19T07:53:13;12.20;;;2.10;;
13797;SDS011;6970;51.340;3.240;2023-09-19T07:55:41;8.63;;;2.50;;
13797;SDS011;6970;51.340;3.240;2023-09-19T08:03:10;9.13;;;2.70;;
13797;SDS011;6970;51.340;3.240;2023-09-19T08:05:43;8.90;;;2.20;;
13797;SDS011;6970;51.340;3.240;2023-09-19T08:08:15;9.47;;;2.60;;
13797;SDS011;6970;51.340;3.240;2023-09-19T08:10:42;9.20;;;2.47;;
13797;SDS011;6970;51.340;3.240;2023-09-19T08:13:12;7.17;;;2.53;;
13797;SDS011;6970;51.340;3.240;2023-09-19T08:15:47;13.30;;;2.63;;
13797;SDS011;6970;51.340;3.240;2023-09-19T08:18:17;9.23;;;2.17;;
13797;SDS011;6970;51.340;3.240;2023-09-19T08:23:19;7.20;;;2.17;;
13797;SDS011;6970;51.340;3.240;2023-09-19T08:25:47;8.40;;;2.90;;
13797;SDS011;6970;51.340;3.240;2023-09-19T08:28:16;7.43;;;2.10;;
13797;SDS011;6970;51.340;3.240;2023-09-19T08:30:54;6.80;;;2.23;;
13797;SDS011;6970;51.340;3.240;2023-09-19T08:33:21;8.50;;;2.37;;
13797;SDS011;6970;51.340;3.240;2023-09-19T08:35:51;7.93;;;2.33;;
13797;SDS011;6970;51.340;3.240;2023-09-19T08:38:22;7.43;;;2.60;;
13797;SDS011;6970;51.340;3.240;2023-09-19T08:43:21;10.87;;;2.30;;
13797;SDS011;6970;51.340;3.240;2023-09-19T08:48:23;10.47;;;2.43;;
13797;SDS011;6970;51.340;3.240;2023-09-19T08:51:02;6.00;;;2.00;;
13797;SDS011;6970;51.340;3.240;2023-09-19T08:53:35;6.83;;;2.53;;
13797;SDS011;6970;51.340;3.240;2023-09-19T08:56:07;6.07;;;2.00;;
13797;SDS011;6970;51.340;3.240;2023-09-19T08:58:48;8.53;;;2.57;;
13797;SDS011;6970;51.340;3.240;2023-09-19T09:01:21;6.47;;;2.40;;
13797;SDS011;6970;51.340;3.240;2023-09-19T09:03:54;10.00;;;2.30;;
13797;SDS011;6970;51.340;3.240;2023-09-19T09:06:25;4.37;;;1.80;;
13797;SDS011;6970;51.340;3.240;2023-09-19T09:08:56;10.20;;;2.47;;
13797;SDS011;6970;51.340;3.240;2023-09-19T09:11:26;9.97;;;2.20;;
13797;SDS011;6970;51.340;3.240;2023-09-19T09:13:54;5.33;;;2.17;;
13797;SDS011;6970;51.340;3.240;2023-09-19T09:16:23;8.30;;;1.97;;
13797;SDS011;6970;51.340;3.240;2023-09-19T09:21:26;6.00;;;2.23;;
13797;SDS011;6970;51.340;3.240;2023-09-19T09:23:55;6.13;;;2.05;;
13797;SDS011;6970;51.340;3.240;2023-09-19T09:29:15;8.60;;;2.00;;
13797;SDS011;6970;51.340;3.240;2023-09-19T09:31:46;7.77;;;2.07;;
13797;SDS011;6970;51.340;3.240;2023-09-19T09:39:34;7.57;;;2.10;;
13797;SDS011;6970;51.340;3.240;2023-09-19T09:42:04;6.00;;;2.13;;
13797;SDS011;6970;51.340;3.240;2023-09-19T09:44:33;6.57;;;1.70;;
13797;SDS011;6970;51.340;3.240;2023-09-19T09:49:50;6.57;;;1.80;;
13797;SDS011;6970;51.340;3.240;2023-09-19T09:52:23;7.67;;;1.80;;
13797;SDS011;6970;51.340;3.240;2023-09-19T09:55:01;5.07;;;1.70;;
13797;SDS011;6970;51.340;3.240;2023-09-19T09:57:37;5.10;;;1.80;;
13797;SDS011;6970;51.340;3.240;2023-09-19T10:00:07;6.23;;;1.80;;
13797;SDS011;6970;51.340;3.240;2023-09-19T10:02:43;4.50;;;1.40;;
13797;SDS011;6970;51.340;3.240;2023-09-19T10:05:20;3.97;;;1.40;;
13797;SDS011;6970;51.340;3.240;2023-09-19T10:07:57;6.90;;;1.73;;
13797;SDS011;6970;51.340;3.240;2023-09-19T10:13:16;8.60;;;1.60;;
13797;SDS011;6970;51.340;3.240;2023-09-19T10:15:51;5.70;;;1.47;;
13797;SDS011;6970;51.340;3.240;2023-09-19T10:18:24;5.23;;;1.50;;
13797;SDS011;6970;51.340;3.240;2023-09-19T10:28:32;5.63;;;2.03;;
13797;SDS011;6970;51.340;3.240;2023-09-19T10:31:01;6.53;;;1.93;;
13797;SDS011;6970;51.340;3.240;2023-09-19T10:33:32;9.90;;;1.90;;
13797;SDS011;6970;51.340;3.240;2023-09-19T10:38:40;5.57;;;1.83;;
13797;SDS011;6970;51.340;3.240;2023-09-19T10:41:09;7.73;;;1.70;;
13797;SDS011;6970;51.340;3.240;2023-09-19T10:43:40;6.23;;;1.90;;
13797;SDS011;6970;51.340;3.240;2023-09-19T10:46:14;4.30;;;1.50;;
13797;SDS011;6970;51.340;3.240;2023-09-19T10:51:20;5.13;;;1.23;;
13797;SDS011;6970;51.340;3.240;2023-09-19T10:53:54;5.50;;;1.33;;
13797;SDS011;6970;51.340;3.240;2023-09-19T10:56:31;5.27;;;1.43;;
13797;SDS011;6970;51.340;3.240;2023-09-19T11:01:45;4.20;;;1.40;;
13797;SDS011;6970;51.340;3.240;2023-09-19T11:07:09;7.13;;;1.53;;
13797;SDS011;6970;51.340;3.240;2023-09-19T11:15:10;6.07;;;1.40;;
13797;SDS011;6970;51.340;3.240;2023-09-19T11:17:59;3.53;;;1.60;;
13797;SDS011;6970;51.340;3.240;2023-09-19T11:25:44;7.23;;;1.87;;
13797;SDS011;6970;51.340;3.240;2023-09-19T11:30:52;5.00;;;1.97;;
13797;SDS011;6970;51.340;3.240;2023-09-19T11:33:39;3.67;;;2.07;;
13797;SDS011;6970;51.340;3.240;2023-09-19T11:36:16;6.60;;;2.00;;
13797;SDS011;6970;51.340;3.240;2023-09-19T11:46:53;6.10;;;1.70;;
13797;SDS011;6970;51.340;3.240;2023-09-19T11:49:31;7.43;;;2.00;;
13797;SDS011;6970;51.340;3.240;2023-09-19T11:54:38;5.30;;;1.90;;
13797;SDS011;6970;51.340;3.240;2023-09-19T11:57:08;7.33;;;1.90;;
13797;SDS011;6970;51.340;3.240;2023-09-19T11:59:38;6.47;;;2.37;;
13797;SDS011;6970;51.340;3.240;2023-09-19T12:02:08;5.80;;;1.80;;
13797;SDS011;6970;51.340;3.240;2023-09-19T12:04:44;5.67;;;1.70;;
13797;SDS011;6970;51.340;3.240;2023-09-19T12:07:16;7.27;;;2.13;;
13797;SDS011;6970;51.340;3.240;2023-09-19T12:09:49;7.43;;;2.20;;
13797;SDS011;6970;51.340;3.240;2023-09-19T12:12:29;6.97;;;2.23;;
13797;SDS011;6970;51.340;3.240;2023-09-19T12:14:57;6.70;;;2.00;;
13797;SDS011;6970;51.340;3.240;2023-09-19T12:20:11;7.03;;;2.23;;
13797;SDS011;6970;51.340;3.240;2023-09-19T12:22:45;6.97;;;1.97;;
13797;SDS011;6970;51.340;3.240;2023-09-19T12:25:15;7.33;;;2.00;;
13797;SDS011;6970;51.340;3.240;2023-09-19T12:27:47;5.53;;;2.10;;
13797;SDS011;6970;51.340;3.240;2023-09-19T12:38:02;7.47;;;2.20;;
13797;SDS011;6970;51.340;3.240;2023-09-19T12:40:34;6.77;;;2.27;;
13797;SDS011;6970;51.340;3.240;2023-09-19T12:43:04;11.80;;;2.50;;
13797;SDS011;6970;51.340;3.240;2023-09-19T12:45:33;6.47;;;1.83;;
13797;SDS011;6970;51.340;3.240;2023-09-19T12:51:08;7.47;;;2.20;;
13797;SDS011;6970;51.340;3.240;2023-09-19T12:53:42;3.73;;;1.93;;
13797;SDS011;6970;51.340;3.240;2023-09-19T12:56:15;5.67;;;2.40;;
13797;SDS011;6970;51.340;3.240;2023-09-19T12:58:52;6.23;;;2.50;;
13797;SDS011;6970;51.340;3.240;2023-09-19T13:01:24;5.93;;;2.47;;
13797;SDS011;6970;51.340;3.240;2023-09-19T13:06:50;9.20;;;2.37;;
13797;SDS011;6970;51.340;3.240;2023-09-19T13:11:51;5.83;;;1.97;;
13797;SDS011;6970;51.340;3.240;2023-09-19T13:14:22;5.83;;;2.17;;
13797;SDS011;6970;51.340;3.240;2023-09-19T13:17:05;5.93;;;2.40;;
13797;SDS011;6970;51.340;3.240;2023-09-19T13:19:48;7.13;;;2.37;;
13797;SDS011;6970;51.340;3.240;2023-09-19T13:25:15;8.33;;;2.13;;
13797;SDS011;6970;51.340;3.240;2023-09-19T13:27:52;7.27;;;2.87;;
13797;SDS011;6970;51.340;3.240;2023-09-19T13:30:26;6.77;;;2.07;;
13797;SDS011;6970;51.340;3.240;2023-09-19T13:33:08;6.83;;;2.30;;
13797;SDS011;6970;51.340;3.240;2023-09-19T13:35:40;5.87;;;2.90;;
13797;SDS011;6970;51.340;3.240;2023-09-19T13:38:08;7.27;;;2.40;;
13797;SDS011;6970;51.340;3.240;2023-09-19T13:40:38;7.57;;;2.30;;
13797;SDS011;6970;51.340;3.240;2023-09-19T13:45:39;7.40;;;2.63;;
13797;SDS011;6970;51.340;3.240;2023-09-19T13:48:09;11.00;;;3.20;;
13797;SDS011;6970;51.340;3.240;2023-09-19T13:50:38;6.80;;;2.57;;
13797;SDS011;6970;51.340;3.240;2023-09-19T13:53:13;9.70;;;3.00;;
13797;SDS011;6970;51.340;3.240;2023-09-19T13:55:43;8.00;;;2.60;;
13797;SDS011;6970;51.340;3.240;2023-09-19T13:58:13;13.67;;;3.57;;
13797;SDS011;6970;51.340;3.240;2023-09-19T14:03:12;8.03;;;2.70;;
13797;SDS011;6970;51.340;3.240;2023-09-19T14:05:46;8.90;;;2.90;;
13797;SDS011;6970;51.340;3.240;2023-09-19T14:08:16;13.20;;;3.30;;
13797;SDS011;6970;51.340;3.240;2023-09-19T14:13:17;9.80;;;2.73;;
13797;SDS011;6970;51.340;3.240;2023-09-19T14:15:48;8.33;;;3.33;;
13797;SDS011;6970;51.340;3.240;2023-09-19T14:18:15;8.80;;;2.93;;
13797;SDS011;6970;51.340;3.240;2023-09-19T14:20:42;11.77;;;6.10;;
13797;SDS011;6970;51.340;3.240;2023-09-19T14:23:12;10.67;;;3.20;;
13797;SDS011;6970;51.340;3.240;2023-09-19T14:25:39;7.37;;;2.73;;
13797;SDS011;6970;51.340;3.240;2023-09-19T14:30:37;8.47;;;2.63;;
13797;SDS011;6970;51.340;3.240;2023-09-19T14:33:08;12.70;;;3.27;;
13797;SDS011;6970;51.340;3.240;2023-09-19T14:35:39;7.50;;;3.23;;
13797;SDS011;6970;51.340;3.240;2023-09-19T14:38:14;13.37;;;3.60;;
13797;SDS011;6970;51.340;3.240;2023-09-19T14:40:42;7.40;;;3.03;;
13797;SDS011;6970;51.340;3.240;2023-09-19T14:43:09;8.63;;;3.33;;
13797;SDS011;6970;51.340;3.240;2023-09-19T14:45:36;9.27;;;3.23;;
13797;SDS011;6970;51.340;3.240;2023-09-19T14:48:04;7.10;;;3.03;;
13797;SDS011;6970;51.340;3.240;2023-09-19T14:50:32;8.97;;;3.37;;
13797;SDS011;6970;51.340;3.240;2023-09-19T14:52:59;11.80;;;3.57;;
13797;SDS011;6970;51.340;3.240;2023-09-19T14:55:28;9.13;;;3.00;;
13797;SDS011;6970;51.340;3.240;2023-09-19T14:58:00;10.03;;;3.10;;
13797;SDS011;6970;51.340;3.240;2023-09-19T15:00:29;9.30;;;2.80;;
13797;SDS011;6970;51.340;3.240;2023-09-19T15:02:56;13.90;;;3.40;;
13797;SDS011;6970;51.340;3.240;2023-09-19T15:05:24;8.07;;;2.87;;
13797;SDS011;6970;51.340;3.240;2023-09-19T15:10:23;9.47;;;3.70;;
13797;SDS011;6970;51.340;3.240;2023-09-19T15:12:53;8.07;;;3.27;;
13797;SDS011;6970;51.340;3.240;2023-09-19T15:15:21;12.73;;;3.20;;
13797;SDS011;6970;51.340;3.240;2023-09-19T15:17:51;4.77;;;3.03;;
13797;SDS011;6970;51.340;3.240;2023-09-19T15:20:19;8.20;;;3.60;;
13797;SDS011;6970;51.340;3.240;2023-09-19T15:22:46;8.97;;;3.30;;
13797;SDS011;6970;51.340;3.240;2023-09-19T15:27:45;8.33;;;3.57;;
13797;SDS011;6970;51.340;3.240;2023-09-19T15:30:14;6.47;;;2.90;;
13797;SDS011;6970;51.340;3.240;2023-09-19T15:32:42;12.83;;;3.70;;
13797;SDS011;6970;51.340;3.240;2023-09-19T15:35:09;9.73;;;3.87;;
13797;SDS011;6970;51.340;3.240;2023-09-19T15:37:42;10.30;;;3.87;;
13797;SDS011;6970;51.340;3.240;2023-09-19T15:40:15;8.60;;;3.50;;
13797;SDS011;6970;51.340;3.240;2023-09-19T15:42:43;9.80;;;3.53;;
13797;SDS011;6970;51.340;3.240;2023-09-19T15:45:12;8.83;;;3.13;;
13797;SDS011;6970;51.340;3.240;2023-09-19T15:47:42;9.57;;;3.90;;
13797;SDS011;6970;51.340;3.240;2023-09-19T15:50:10;8.33;;;3.93;;
13797;SDS011;6970;51.340;3.240;2023-09-19T15:52:40;9.97;;;3.83;;
13797;SDS011;6970;51.340;3.240;2023-09-19T15:55:08;9.00;;;3.47;;
13797;SDS011;6970;51.340;3.240;2023-09-19T15:57:37;8.27;;;3.50;;
13797;SDS011;6970;51.340;3.240;2023-09-19T16:00:05;9.67;;;3.73;;
13797;SDS011;6970;51.340;3.240;2023-09-19T16:02:40;11.83;;;3.47;;
13797;SDS011;6970;51.340;3.240;2023-09-19T16:05:07;7.67;;;3.60;;
13797;SDS011;6970;51.340;3.240;2023-09-19T16:07:37;11.47;;;3.70;;
13797;SDS011;6970;51.340;3.240;2023-09-19T16:10:04;12.83;;;3.50;;
13797;SDS011;6970;51.340;3.240;2023-09-19T16:12:35;10.07;;;3.77;;
13797;SDS011;6970;51.340;3.240;2023-09-19T16:15:03;11.87;;;3.77;;
13797;SDS011;6970;51.340;3.240;2023-09-19T16:17:31;7.77;;;3.40;;
13797;SDS011;6970;51.340;3.240;2023-09-19T16:19:58;5.90;;;2.90;;
13797;SDS011;6970;51.340;3.240;2023-09-19T16:22:27;6.77;;;3.57;;
13797;SDS011;6970;51.340;3.240;2023-09-19T16:27:24;10.83;;;3.70;;
13797;SDS011;6970;51.340;3.240;2023-09-19T16:32:22;10.00;;;4.10;;
13797;SDS011;6970;51.340;3.240;2023-09-19T16:37:19;10.57;;;4.27;;
13797;SDS011;6970;51.340;3.240;2023-09-19T16:39:48;10.10;;;4.30;;
13797;SDS011;6970;51.340;3.240;2023-09-19T16:42:15;8.97;;;3.33;;
13797;SDS011;6970;51.340;3.240;2023-09-19T16:44:48;10.60;;;4.20;;
13797;SDS011;6970;51.340;3.240;2023-09-19T16:47:17;10.67;;;3.67;;
13797;SDS011;6970;51.340;3.240;2023-09-19T16:49:46;12.37;;;4.20;;
13797;SDS011;6970;51.340;3.240;2023-09-19T16:52:14;11.90;;;4.23;;
13797;SDS011;6970;51.340;3.240;2023-09-19T16:54:42;8.80;;;3.33;;
13797;SDS011;6970;51.340;3.240;2023-09-19T16:57:13;5.90;;;3.17;;
13797;SDS011;6970;51.340;3.240;2023-09-19T16:59:42;8.57;;;3.37;;
13797;SDS011;6970;51.340;3.240;2023-09-19T17:02:10;9.27;;;3.43;;
13797;SDS011;6970;51.340;3.240;2023-09-19T17:04:41;5.27;;;3.73;;
13797;SDS011;6970;51.340;3.240;2023-09-19T17:09:40;9.27;;;3.00;;
13797;SDS011;6970;51.340;3.240;2023-09-19T17:12:11;7.93;;;3.03;;
13797;SDS011;6970;51.340;3.240;2023-09-19T17:14:47;5.17;;;2.87;;
13797;SDS011;6970;51.340;3.240;2023-09-19T17:17:15;9.40;;;3.57;;
13797;SDS011;6970;51.340;3.240;2023-09-19T17:19:42;8.60;;;3.13;;
13797;SDS011;6970;51.340;3.240;2023-09-19T17:22:10;6.83;;;2.97;;
13797;SDS011;6970;51.340;3.240;2023-09-19T17:24:40;7.33;;;3.40;;
13797;SDS011;6970;51.340;3.240;2023-09-19T17:29:40;6.27;;;3.23;;
13797;SDS011;6970;51.340;3.240;2023-09-19T17:32:07;7.60;;;3.37;;
13797;SDS011;6970;51.340;3.240;2023-09-19T17:34:38;8.00;;;3.60;;
13797;SDS011;6970;51.340;3.240;2023-09-19T17:37:05;12.03;;;4.07;;
13797;SDS011;6970;51.340;3.240;2023-09-19T17:39:36;10.17;;;3.90;;
13797;SDS011;6970;51.340;3.240;2023-09-19T17:42:07;8.30;;;3.57;;
13797;SDS011;6970;51.340;3.240;2023-09-19T17:47:08;9.73;;;3.87;;
13797;SDS011;6970;51.340;3.240;2023-09-19T17:49:39;8.60;;;4.00;;
13797;SDS011;6970;51.340;3.240;2023-09-19T17:57:13;5.60;;;3.10;;
13797;SDS011;6970;51.340;3.240;2023-09-19T17:59:40;10.03;;;3.53;;
13797;SDS011;6970;51.340;3.240;2023-09-19T18:02:08;8.70;;;3.60;;
13797;SDS011;6970;51.340;3.240;2023-09-19T18:04:35;6.03;;;3.13;;
13797;SDS011;6970;51.340;3.240;2023-09-19T18:09:39;6.63;;;3.13;;
13797;SDS011;6970;51.340;3.240;2023-09-19T18:12:08;5.83;;;3.20;;
13797;SDS011;6970;51.340;3.240;2023-09-19T18:14:35;4.67;;;3.17;;
13797;SDS011;6970;51.340;3.240;2023-09-19T18:17:05;5.20;;;3.00;;
13797;SDS011;6970;51.340;3.240;2023-09-19T18:19:35;8.20;;;3.03;;
13797;SDS011;6970;51.340;3.240;2023-09-19T18:24:34;10.87;;;4.50;;
13797;SDS011;6970;51.340;3.240;2023-09-19T18:29:34;7.77;;;3.33;;
13797;SDS011;6970;51.340;3.240;2023-09-19T18:32:02;10.87;;;3.47;;
13797;SDS011;6970;51.340;3.240;2023-09-19T18:37:01;7.17;;;3.33;;
13797;SDS011;6970;51.340;3.240;2023-09-19T18:39:30;6.40;;;3.20;;
13797;SDS011;6970;51.340;3.240;2023-09-19T18:42:04;9.93;;;3.90;;
13797;SDS011;6970;51.340;3.240;2023-09-19T18:44:37;5.87;;;3.33;;
13797;SDS011;6970;51.340;3.240;2023-09-19T18:47:04;9.50;;;3.40;;
13797;SDS011;6970;51.340;3.240;2023-09-19T18:49:32;11.27;;;3.87;;
13797;SDS011;6970;51.340;3.240;2023-09-19T18:54:42;7.23;;;3.10;;